KMBG

Details ICAO KMBG
Name MOBRIDGE MUNI
Region United States
Timezone America/Chicago (UTC-5.0)
Plans Departing 2
Arriving 11
Stats Elevation 1,715 ft / 523 m (AMSL)
Location 45.546283° -100.405557°
Runways 2
Magnetic Variation 5.664° E
Sunrise 2018-05-26 11:01:36 UTC / 2018-05-26 06:01:36 Local
Sunset 2018-05-27 02:18:40 UTC / 2018-05-26 21:18:40 Local
Advertisement - Login to hide

Runways

ID Width Length Bearing (true) Bearing (mag) Surface Threshold Offset Overrun Length
12 75 ft / 23 m 4,406 ft / 1,343 m 126.76° 121.10° Asphalt 0 ft / 0 m 0 ft / 0 m
17 250 ft / 76 m 2,404 ft / 733 m 180.00° 174.34° Grass 0 ft / 0 m 0 ft / 0 m
30 75 ft / 23 m 4,406 ft / 1,343 m 306.77° 301.11° Asphalt 0 ft / 0 m 0 ft / 0 m
35 250 ft / 76 m 2,404 ft / 733 m 0.00° 354.34° Grass 0 ft / 0 m 0 ft / 0 m

Map

Weather


0- 5 10 15 20 25 30 35+ Temperature / ° C

Clouds and Precipitation
Forecast for 2018-05-26 12:00 UTC. Updated 3 hours ago

Ground ~20,000 ft ~40,000 ft Winds

METAR

KMBG 261352Z AUTO 18003KT 10SM CLR 21/14 A2978 RMK AO2 SLP072 T02060139

TAF

KMBG 261131Z 2612/2712 VRB04KT P6SM SKC FM261800 14007KT P6SM SKC FM270500 11011KT P6SM FEW250 FM270800 12010KT P6SM FEW250 WS020/17035KT FM271100 17009KT P6SM SCT200 WS015/19025KT

Frequencies

Recorded 121.42 MHz ASOS
Unicom 122.80 MHz CTAF/UNICOM
Warning: Do not use this data for real-world aviation or navigation. No guarantee of current accuracy is given.